Terminal Aerodrome Forecast
Issued by NWS

Home | Current Version | Previous Version | Text Only | Print | Product List | Glossary On
Versions: 1 2 3 4 5 6 7 8 9 10 11 12 13 14 15 16 17 18 19 20 21 22 23 24 25 26
000
FTUS45 KREV 182340
TAFTVL
TAF
KTVL 182340Z 1900/1924 20011G18KT P6SM VCSH SCT020 BKN050
      WS015/27015KT
     FM190300 20006KT P6SM VCSH SCT030 BKN070
     FM192000 18008KT P6SM VCSH BKN035 BKN050=

USA.gov is the U.S. government's official web portal to all federal, state and local government web resources and services.